Hibbs, Pennsylvania
Current Conditions -  °F | °C
As of 4:53 PM on Monday 20 Oct 2014 (Local Time) from KMGW Reporting Station
Overcast Overcast  
Wind Chill: 59°   Ceiling: 6500
Heat Index: 59°   Visibility: 10mi
Dew Point: 39°   Wind: 7mph
Humidity: 48%   Direction: 210°SSW
Pressure: 29.92"   Gusts: NA
Location:  39.93°N, 79.88°W
Report Text: KMGW 202053Z 21006KT 10SM BKN065 OVC085 15/04 A2992 RMK AO2 SLP134 T01500039 56011
Loading
Personal Weather Stations






























Interactive Weather Map
Tropical Storm Tracking
New forecast layout! Learn more

10-Day Weather Forecast

Advertisements
Track Severe Weather on mobile